• Join FlightAware (Why Join?)
  • Login
  • US Flag 
05:46AM EDT


 

Airport Tracker/Info


-or-


 

Live Flight TrackerFlight Track Log ✈ TAM3130 ✈ 09-May-2013 ✈ SBSP / CGH - SBVT / VIX

Flight Track Log - Related Links

Times and Time Zones

All times are in EDT time to prevent confusion due to time zone crossing. See the TAM3130 flight status page for this flight to view local times or setup timezone preferences in your user account.

Time Position Orientation Groundspeed Altitude Reporting Facility
EDT Latitude Longitude Course Direction KTS MPH feet Rate Location/Type
07:27AM -23.7040 -46.5790 90° East 265 305 5,000  Level FlightAware
07:27AM -23.6940 -46.5440 73° East 274 315 6,300 3,000 Climbing FlightAware
07:28AM -23.6740 -46.5030 62° Northeast 284 327 7,800 1,560 Climbing FlightAware
07:28AM -23.6600 -46.4710 64° Northeast 284 327 7,900 1,800 Climbing FlightAware
07:30AM -23.6100 -46.3330 68° East 343 395 11,600 2,280 Climbing FlightAware
07:31AM -23.5840 -46.2570 70° East 368 423 13,100 2,040 Climbing FlightAware
07:31AM -23.5580 -46.1850 69° East 372 428 14,500 1,860 Climbing FlightAware
07:32AM -23.5300 -46.1090 68° East 384 442 15,800 1,860 Climbing FlightAware
07:33AM -23.4980 -46.0240 68° East 393 452 17,200 1,800 Climbing FlightAware
07:33AM -23.4740 -45.9570 69° East 396 456 18,400 1,800 Climbing FlightAware
07:34AM -23.4510 -45.8740 73° East 403 464 19,600 1,680 Climbing FlightAware
07:35AM -23.4300 -45.7870 75° East 408 470 20,800 1,500 Climbing FlightAware
07:36AM -23.4090 -45.7040 75° East 415 478 21,800 1,320 Climbing FlightAware
07:36AM -23.3890 -45.6230 75° East 428 493 22,600 1,260 Climbing FlightAware
07:37AM -23.3660 -45.5300 75° East 436 502 23,600 1,320 Climbing FlightAware
07:38AM -23.3450 -45.4420 75° East 442 509 24,500 1,320 Climbing FlightAware
07:38AM -23.3210 -45.3460 75° East 447 514 25,500 1,200 Climbing FlightAware
07:39AM -23.2990 -45.2570 75° East 452 520 26,200 1,080 Climbing FlightAware
07:40AM -23.2680 -45.1710 69° East 456 525 27,100 1,200 Climbing FlightAware
07:40AM -23.2390 -45.0750 72° East 463 533 27,900 1,260 Climbing FlightAware
07:41AM -23.2250 -44.9990 79° East 461 531 28,700 1,020 Climbing FlightAware
07:42AM -23.2080 -44.9040 79° East 468 539 29,300 960 Climbing FlightAware
07:43AM -23.1890 -44.8000 79° East 469 540 30,200 1,080 Climbing FlightAware
07:43AM -23.1620 -44.7200 70° East 468 539 30,800 1,200 Climbing FlightAware
07:44AM -23.1220 -44.6340 63° Northeast 465 535 31,700 1,320 Climbing FlightAware
07:45AM -23.0700 -44.5240 63° Northeast 464 534 32,800 1,200 Climbing FlightAware
07:45AM -23.0260 -44.4300 63° Northeast 463 533 33,600 960 Climbing FlightAware
07:46AM -22.9860 -44.3460 63° Northeast 464 534 34,200 900 Climbing FlightAware
07:47AM -22.9480 -44.2650 63° Northeast 463 533 34,800 540 Climbing FlightAware
07:47AM -22.9040 -44.1720 63° Northeast 458 527 35,000 120 Climbing FlightAware
07:48AM -22.8660 -44.0910 63° Northeast 459 528 35,000  Level FlightAware
07:49AM -22.8250 -44.0040 63° Northeast 460 529 35,000  Level FlightAware
07:49AM -22.8010 -43.9550 62° Northeast 459 528 35,000  Level FlightAware
07:50AM -22.7490 -43.8450 63° Northeast 459 528 35,000  Level FlightAware
07:51AM -22.6960 -43.7340 63° Northeast 460 529 35,000  Level FlightAware
07:52AM -22.6580 -43.6520 63° Northeast 461 531 35,000  Level FlightAware
07:52AM -22.6180 -43.5690 62° Northeast 461 531 35,000  Level FlightAware
07:53AM -22.5750 -43.4800 62° Northeast 461 531 35,000  Level FlightAware
07:54AM -22.5370 -43.4020 62° Northeast 461 531 35,000  Level FlightAware
07:54AM -22.4910 -43.3040 63° Northeast 461 531 35,000  Level FlightAware
07:55AM -22.4520 -43.2230 62° Northeast 462 532 35,000  Level FlightAware
07:56AM -22.4130 -43.1420 63° Northeast 462 532 35,000  Level FlightAware
07:57AM -22.3570 -43.0560 55° Northeast 462 532 35,000  Level FlightAware
07:57AM -22.3050 -42.9840 52° Northeast 462 532 35,000  Level FlightAware
07:58AM -22.2440 -42.9000 52° Northeast 462 532 35,000  Level FlightAware
07:59AM -22.1930 -42.8300 52° Northeast 462 532 35,000  Level FlightAware
07:59AM -22.1250 -42.7380 51° Northeast 462 532 35,000  Level FlightAware
08:00AM -22.0880 -42.6870 52° Northeast 462 532 35,000  Level FlightAware
08:01AM -22.0330 -42.6120 52° Northeast 462 532 35,000  Level FlightAware
08:01AM -21.9810 -42.5420 51° Northeast 462 532 35,000  Level FlightAware
08:02AM -21.9270 -42.4690 51° Northeast 462 532 35,000  Level FlightAware
08:03AM -21.8730 -42.3960 51° Northeast 461 531 35,000  Level FlightAware
08:03AM -21.8210 -42.3250 52° Northeast 461 531 35,000  Level FlightAware
08:04AM -21.7670 -42.2520 51° Northeast 461 531 35,000  Level FlightAware
08:05AM -21.7140 -42.1810 51° Northeast 461 531 35,000  Level FlightAware
08:05AM -21.6610 -42.1090 52° Northeast 461 531 35,000  Level FlightAware
08:06AM -21.6010 -42.0270 52° Northeast 459 528 35,000  Level FlightAware
08:07AM -21.5470 -41.9550 51° Northeast 459 528 35,000  Level FlightAware
08:07AM -21.4880 -41.8770 51° Northeast 460 529 35,000  Level FlightAware
08:08AM -21.4350 -41.8050 52° Northeast 459 528 35,000  Level FlightAware
08:09AM -21.3800 -41.7320 51° Northeast 458 527 35,000 -1,080 Level FlightAware
08:10AM -21.3200 -41.6510 52° Northeast 454 522 33,500 -1,440 Descending FlightAware
08:10AM -21.2600 -41.5710 51° Northeast 451 519 32,800 -1,980 Descending FlightAware
08:11AM -21.2030 -41.4940 52° Northeast 438 504 30,400 -2,520 Descending FlightAware
08:12AM -21.1620 -41.4400 51° Northeast 433 498 29,300 -1,980 Descending FlightAware
08:12AM -21.1030 -41.3610 51° Northeast 431 496 27,800  Descending FlightAware
08:13AM -21.1620 -41.4400 231° Southwest 433 498 29,300 -300 Climbing FlightAware
08:14AM -21.0920 -41.3460 51° Northeast 414 476 27,400 -2,280 Descending FlightAware
08:15AM -21.0350 -41.2710 51° Northeast 417 480 25,900 -2,100 Descending FlightAware
08:15AM -20.9750 -41.1910 51° Northeast 410 472 24,300 -1,920 Descending FlightAware
08:17AM -20.8350 -41.0060 50° Northeast 392 451 20,500 -1,740 Descending FlightAware
08:18AM -20.8290 -41.0056 50° Northeast  Level Estimated
08:18AM -20.7920 -40.9490 51° Northeast 385 443 19,400  Level FlightAware
08:19AM -20.7480 -40.8910 51° Northeast 379 436 18,300 -1,800 Descending FlightAware
08:20AM -20.6980 -40.8260 51° Northeast 374 430 17,000 -1,800 Descending FlightAware
08:20AM -20.6370 -40.7590 46° Northeast 363 418 15,800 -1,560 Descending FlightAware
08:21AM -20.5640 -40.6990 38° Northeast 358 412 14,400 -1,560 Descending FlightAware
08:22AM -20.5190 -40.6600 39° Northeast 356 410 13,500 -1,620 Descending FlightAware
08:23AM -20.4600 -40.6120 37° Northeast 353 406 12,300 -1,620 Descending FlightAware
08:23AM -20.4050 -40.5650 39° Northeast 351 404 11,100 -1,500 Descending FlightAware
08:24AM -20.3590 -40.5280 37° Northeast 347 399 10,300 -1,140 Descending FlightAware
08:25AM -20.3010 -40.4790 38° Northeast 321 369 9,500 -1,320 Descending FlightAware
08:25AM -20.2500 -40.4360 38° Northeast 313 360 8,400 -1,620 Descending FlightAware
08:26AM -20.2030 -40.3980 37° Northeast 298 343 7,500 -1,620 Descending FlightAware
08:26AM -20.1870 -40.3850 37° Northeast 297 342 7,200 -1,620 Descending FlightAware
08:26AM -20.1670 -40.3680 39° Northeast 294 338 6,700 -1,320 Descending FlightAware
08:27AM -20.1420 -40.3480 37° Northeast 291 335 6,100 -1,200 Descending FlightAware
08:28AM -20.1090 -40.3200 39° Northeast 284 327 5,400 -1,620 Descending FlightAware
08:28AM -20.0720 -40.2890 38° Northeast 283 326 4,400 -1,800 Descending FlightAware
08:28AM -20.0520 -40.2610 53° Northeast 280 322 3,800 -1,440 Descending FlightAware
08:29AM -20.0660 -40.2240 112° Southeast 259 298 3,100 -900 Descending FlightAware
08:29AM -20.0870 -40.2070 143° Southeast 230 265 3,000 -120 Descending FlightAware
08:30AM -20.1100 -40.1930 150° Southeast 196 226 3,000 -600 Level FlightAware
08:30AM -20.1360 -40.2060 205° Southwest 186 214 2,400 -1,200 Descending FlightAware
08:31AM -20.1490 -40.2140 210° Southwest 175 201 2,100 -960 Descending FlightAware
08:31AM -20.1670 -40.2270 214° Southwest 155 178 1,700 -780 Descending FlightAware
08:32AM -20.1800 -40.2360 213° Southwest 142 163 1,400 -720 Descending FlightAware
08:32AM -20.1910 -40.2430 211° Southwest 135 155 1,100 -720 Descending FlightAware
08:32AM -20.2050 -40.2520 211° Southwest 131 151 800 -660 Descending FlightAware
08:33AM -20.2200 -40.2620 212° Southwest 133 153 500 -720 Descending FlightAware
08:33AM -20.2280 -40.2670 210° Southwest 136 157 300 -840 Descending FlightAware
08:34AM -20.2410 -40.2760 213° Southwest 135 155 -600 Descending FlightAware
08:34AM -20.2450 -40.2780 205° Southwest 135 155  Level FlightAware
08:43AM -20.2581 -40.2864 285° West  Level Estimated
08:44AM -20.2581 -40.2864 13° North  Level Estimated
08:45AM -20.2581 -40.2864 13° North  Level Estimated